This is the latest recevied weather packets stored in our database for station/object FHDOHA-13. If no packets are shown the sender has not sent any weather packets the latest 10 day(s).
| Time | Temp. | Humidity | Pressure | Rain* | Wind** | Luminosity | Snow |
|---|---|---|---|---|---|---|---|
| 1777807874 | 21.67° C | 38% | 1011.8 hPa | 0 mm | - | - | - |
| 1777806974 | 21.67° C | 36% | 1011.8 hPa | 0 mm | - | - | - |
| 1777806074 | 21.11° C | 37% | 1011.9 hPa | 0 mm | - | - | - |
| 1777805174 | 20.56° C | 37% | 1013 hPa | 0 mm | - | - | - |
| 1777804274 | 21.67° C | 39% | 1012.9 hPa | 0 mm | - | - | - |
| 1777803374 | 22.22° C | 34% | 1012.8 hPa | 0 mm | - | - | - |
| 1777802474 | 23.33° C | 37% | 1012.7 hPa | 0 mm | - | - | - |
| 1777801574 | 22.78° C | 38% | 1012.8 hPa | 0 mm | - | - | - |
| 1777800674 | 22.78° C | 39% | 1012.8 hPa | 0 mm | - | - | - |
| 1777799777 | 22.78° C | 39% | 1012.7 hPa | 0 mm | - | - | - |
| 1777798874 | 22.22° C | 40% | 1012.8 hPa | 0 mm | - | - | - |
| 1777797974 | 22.22° C | 38% | 1011.8 hPa | 0 mm | - | - | - |
| 1777797074 | 22.22° C | 37% | 1011.8 hPa | 0 mm | - | - | - |
| 1777796174 | 21.67° C | 39% | 1011.8 hPa | 0 mm | - | - | - |
| 1777795274 | 21.11° C | 38% | 1011.9 hPa | 0 mm | - | - | - |
| 1777794374 | 20° C | 39% | 1012 hPa | 0 mm | - | - | - |
| 1777793474 | 19.44° C | 39% | 1012 hPa | 0 mm | - | - | - |
| 1777792574 | 19.44° C | 38% | 1012 hPa | 0 mm | - | - | - |
| 1777791674 | 21.11° C | 39% | 1011.9 hPa | 0 mm | - | - | - |
| 1777790774 | 23.89° C | 38% | 1011.6 hPa | 0 mm | - | - | - |
| 1777789874 | 20.56° C | 51% | 1011.9 hPa | 0 mm | - | - | - |
| 1777788974 | 15.56° C | 58% | 1012.4 hPa | 0 mm | - | - | - |
| 1777788074 | 14.44° C | 61% | 1012.6 hPa | 0 mm | - | - | - |
| 1777787174 | 11.67° C | 68% | 1013.9 hPa | 0 mm | - | - | - |
| 1777786274 | 11.67° C | 68% | 1013.9 hPa | 0 mm | - | - | - |
* Rain latest hour (hover to see other rain measurements)
** Current wind speed in m/s (hover to see current wind gust speed)